CYPA

Prince Albert Glass Field Airport

Prince Albert, Saskatchewan, Canada
METAR CYPA 160900Z 07012KT 15SM -SN OVC012 M14/M17 A3024 RMK SC8 SLP276
Observed Flight Rules
Nov-16 @ 09:00 UTC (45 minutes ago) Marginal Visual Flight Rules
Wind Visibility Clouds Conditions
70° at 12 knots 15 miles
  • Overcast at 1,200' AGL
  • Light Snow
Temperatures Readings
Current -14°C / 7°F
Dewpoint -17°C / 1°F
Humidity 78%
Altimeter 30.24" Hg
Pressure 1027.6 hPa
Elevation 428
METAR CYPA 160900Z 07012KT 15SM -SN OVC012 M14/M17 A3024 RMK SC8 SLP276
Observed Flight Rules
Nov-16 @ 09:00 UTC
(45 minutes ago)
MVFR
Wind Visibility
70° at 12 knots 15 miles
Clouds
  • Overcast at 1,200' AGL
Conditions
  • Light Snow
Temperature Dewpoint
-14°C / 7°F -17°C / 1°F
Humidity Altimeter Pressure
78% 30.24" Hg 1027.6 hPa